Pagrindinis puslapis
METAR-TAF:

METAR-TAF

Oro uostai :

Antalijos oro uostas

Antalija, Turkija

platuma: 36-42N, ilguma: 030-44E, Aukštis: 50 m

Dabartinis oras

Ataskaita buvo paskelbta 28 minutes, ne 23:20 UTC
Vėjas 3 kt iš Šiaurės
Temperatūra 22°C
Drėgmė 83%
Slėgis 1013 hPa
Matomumas 10 km arba daugiau
nėra debesų žemiau 1500 m ir nėra kamuolinių lietaus debesų

METAR: LTAI 182320Z 01003KT CAVOK 22/19 Q1013 NOSIG RMK RWY18C 36002KT RWY36R 01003KT RWY18L 04003KT

Laikas: 02:48 (23:48 UTC)

Prognozė

Ataskaita buvo paskelbta 1 valandą ir 8 minutes, ne 22:40 UTC
Prognozė galioja nuo 19 metu 00 UTC su 19 metu 24 UTC
Vėjas 2 kt nuo kintamojo kryptimis
Matomumas 10 km arba daugiau
nėra debesų žemiau 1500 m ir nėra kamuolinių lietaus debesų
Tapsmas
nuo 19 metu 06 UTC su 19 metu 09 UTC
Vėjas 12 kt iš Pietų
Tapsmas
nuo 19 metu 15 UTC su 19 metu 18 UTC
Vėjas 2 kt nuo kintamojo kryptimis

TAF: LTAI 182240Z 1900/1924 VRB02KT CAVOK BECMG 1906/1909 18012KT BECMG 1915/1918 VRB02KT

Orai ataskaitas ir orų prognozės (METAR, TAF).

turimą stotys yra geltonos ir raudonos taškus žemėlapyje.

Perkelti pele per norėdami pamatyti stoties vardą.

Tada spustelėkite, norėdami matyti oro stebėjimo ir prognozės.

Norėdami pakeisti žemėlapį: spustelėkite ant žalios mygtukų su juodo kryžiaus žemyn,; žalią mygtuką su brūkšneliu, jei norite nutolinti; arba žalių rodyklių gretimoms žemėlapius.


METAR-TAF: